Flight Track Log - Related Links

Times and Time Zones

All times are in EDT time to prevent confusion due to time zone crossing. See the SWA1435 flight status page for this flight to view local times or setup timezone preferences in your user account.

Time Position Orientation Groundspeed Altitude Reporting Facility
EDT Latitude Longitude Course Direction KTS km/h feet Rate Location/Type
Sat 06:56:37 41.9522 -72.6661 76° East 157 291 1,300  Level Boston Center
Sat 06:57:07 41.9583 -72.6328 76° East 182 336 1,900 1,457 Climbing Boston Center
Sat 06:57:47 41.9628 -72.5769 84° East 239 443 3,000 2,079 Climbing Boston Center
Sat 06:58:48 41.9106 -72.5267 144° Southeast 275 509 5,400 3,176 Climbing Boston Center
Sat 06:59:46 41.8272 -72.4958 165° South 269 499 9,300 2,824 Climbing Boston Center
Sat 07:00:47 41.7544 -72.4789 170° South 288 533 11,000 2,115 Climbing Boston Center
Sat 07:01:48 41.6458 -72.4456 167° South 349 647 13,600 2,628 Climbing Boston Center
Sat 07:02:48 41.5500 -72.4178 168° South 382 708 16,300 2,695 Climbing Boston Center
Sat 07:03:46 41.4333 -72.3875 169° South 389 721 18,900 2,288 Climbing Boston Center
Sat 07:04:46 41.3417 -72.3986 185° South 394 729 20,800 1,918 Climbing Boston Center
Sat 07:05:48 41.2478 -72.4981 219° Southwest 359 665 22,800 1,918 Climbing Boston Center
Sat 07:06:48 41.1625 -72.5833 217° Southwest 373 690 24,700 1,916 Climbing Boston Center
Sat 07:07:47 41.0747 -72.6714 217° Southwest 391 724 26,600 2,186 Climbing Boston Center
Sat 07:08:46 40.9869 -72.7564 216° Southwest 397 735 29,000 2,300 Climbing Boston Center
Sat 07:09:47 40.9056 -72.8356 216° Southwest 391 724 31,200 1,736 Climbing Boston Center
Sat 07:10:47 40.8258 -72.9144 217° Southwest 372 689 32,500 1,091 Climbing Boston Center
Sat 07:11:48 40.7611 -72.9772 216° Southwest 372 689 33,400 1,210 Climbing Boston Center
Sat 07:12:46 40.6669 -73.0583 213° Southwest 372 689 34,900 1,311 Climbing Boston Center
Sat 07:13:47 40.5872 -73.1397 218° Southwest 372 689 36,000 541 Climbing Boston Center
Sat 07:14:48 40.5014 -73.2233 217° Southwest 362 671 36,000  Level Boston Center
Sat 07:15:48 40.4175 -73.2986 214° Southwest 362 671 36,000  Level Boston Center
Sat 07:16:48 40.3375 -73.3767 217° Southwest 362 671 36,000  Level Boston Center
Sat 07:17:47 40.2536 -73.4542 215° Southwest 362 671 36,000  Level Boston Center
Sat 07:19:23 40.1339 -73.5728 217° Southwest 366 678 36,000  Level Washington Center
Sat 07:20:23 40.0519 -73.6481 215° Southwest 361 668 36,000  Level Washington Center
Sat 07:21:23 39.9739 -73.7261 217° Southwest 361 668 36,000  Level Washington Center
Sat 07:22:23 39.8917 -73.7986 214° Southwest 361 668 36,000  Level Washington Center
Sat 07:23:23 39.8117 -73.8764 217° Southwest 361 668 36,000  Level Washington Center
Sat 07:24:23 39.7314 -73.9511 216° Southwest 361 668 36,000  Level Washington Center
Sat 07:25:23 39.6511 -74.0256 216° Southwest 361 668 36,000  Level Washington Center
Sat 07:26:23 39.5625 -74.1058 215° Southwest 361 668 36,000  Level Washington Center
Sat 07:27:23 39.4864 -74.1797 217° Southwest 361 668 36,000  Level Washington Center
Sat 07:28:23 39.4058 -74.2539 215° Southwest 361 668 36,000  Level Washington Center
Sat 07:29:23 39.3233 -74.3281 215° Southwest 361 668 36,000  Level Washington Center
Sat 07:30:23 39.2469 -74.3989 216° Southwest 361 668 36,000  Level Washington Center
Sat 07:31:23 39.1664 -74.4725 215° Southwest 354 655 36,000  Level Washington Center
Sat 07:32:23 39.0858 -74.5486 216° Southwest 354 655 36,000  Level Washington Center
Sat 07:33:23 39.0072 -74.6192 215° Southwest 354 655 36,000  Level Washington Center
Sat 07:34:23 38.9264 -74.6925 215° Southwest 354 655 36,000  Level Washington Center
Sat 07:35:23 38.8458 -74.7653 215° Southwest 354 655 36,000  Level Washington Center
Sat 07:36:23 38.7650 -74.8328 213° Southwest 354 655 36,000  Level Washington Center
Sat 07:37:23 38.6819 -74.9108 216° Southwest 354 655 36,000  Level Washington Center
Sat 07:38:23 38.5989 -74.9808 213° Southwest 359 665 36,000  Level Washington Center
Sat 07:39:23 38.5117 -75.0506 212° Southwest 364 674 36,000  Level Washington Center
Sat 07:40:23 38.4286 -75.1225 214° Southwest 369 684 36,000  Level Washington Center
Sat 07:41:23 38.3433 -75.1919 213° Southwest 369 684 36,000  Level Washington Center
Sat 07:42:23 38.2728 -75.2611 218° Southwest 369 684 36,000  Level Washington Center
Sat 07:43:23 38.1875 -75.3275 211° Southwest 369 684 36,000  Level Washington Center
Sat 07:44:23 38.0958 -75.4017 212° Southwest 364 674 36,000  Level Washington Center
Sat 07:45:23 38.0103 -75.4758 214° Southwest 364 674 36,000  Level Washington Center
Sat 07:46:23 37.9269 -75.5417 212° Southwest 369 684 36,000  Level Washington Center
Sat 07:47:23 37.8458 -75.6103 214° Southwest 364 674 36,000  Level Washington Center
Sat 07:48:23 37.7622 -75.6786 213° Southwest 364 674 36,000  Level Washington Center
Sat 07:49:23 37.6808 -75.7439 212° Southwest 364 674 36,000  Level Washington Center
Sat 07:50:23 37.6014 -75.8119 214° Southwest 364 674 36,000  Level Washington Center
Sat 07:51:23 37.5200 -75.8772 212° Southwest 359 665 36,000  Level Washington Center
Sat 07:52:23 37.4364 -75.9422 212° Southwest 359 665 36,000  Level Washington Center
Sat 07:53:23 37.3547 -76.0100 213° Southwest 354 655 36,000  Level Washington Center
Sat 07:54:23 37.2733 -76.0747 212° Southwest 354 655 36,000  Level Washington Center
Sat 07:55:23 37.1894 -76.1419 213° Southwest 354 655 36,000  Level Washington Center
Sat 07:56:23 37.1100 -76.1961 209° Southwest 359 665 36,000  Level Washington Center
Sat 07:57:23 37.0283 -76.2656 214° Southwest 359 665 36,000  Level Washington Center
Sat 07:58:23 36.9444 -76.3325 213° Southwest 359 665 36,000  Level Washington Center
Sat 07:59:23 36.8606 -76.3967 211° Southwest 364 674 36,000  Level Washington Center
Sat 08:00:23 36.7767 -76.4633 212° Southwest 364 674 36,000  Level Washington Center
Sat 08:01:23 36.6886 -76.5400 215° Southwest 364 674 36,000  Level Washington Center
Sat 08:02:23 36.6044 -76.6036 211° Southwest 364 674 36,000  Level Washington Center
Sat 08:03:23 36.5225 -76.6697 213° Southwest 364 674 36,000  Level Washington Center
Sat 08:04:23 36.4406 -76.7331 212° Southwest 364 674 36,000  Level Washington Center
Sat 08:05:23 36.3567 -76.7989 212° Southwest 364 674 36,000  Level Washington Center
Sat 08:06:23 36.2744 -76.8622 212° Southwest 364 674 36,000  Level Washington Center
Sat 08:07:23 36.1925 -76.9253 212° Southwest 359 665 36,000  Level Washington Center
Sat 08:08:23 36.1103 -76.9906 213° Southwest 359 665 36,000  Level Washington Center
Sat 08:09:23 36.0261 -77.0533 211° Southwest 359 665 36,000  Level Washington Center
Sat 08:10:23 35.9461 -77.1186 213° Southwest 359 665 36,000  Level Washington Center
Sat 08:11:23 35.8825 -77.1842 220° Southwest 343 636 36,000  Level Washington Center
Sat 08:12:23 35.8064 -77.2594 219° Southwest 343 636 36,000  Level Washington Center
Sat 08:13:23 35.7322 -77.3344 219° Southwest 348 644 36,000  Level Washington Center
Sat 08:14:23 35.6581 -77.4122 220° Southwest 353 653 36,000  Level Washington Center
Sat 08:15:23 35.5819 -77.4869 219° Southwest 358 663 36,000  Level Washington Center
Sat 08:16:23 35.5036 -77.5617 218° Southwest 358 663 36,000  Level Washington Center
Sat 08:17:23 35.4272 -77.6364 219° Southwest 358 663 36,000  Level Washington Center
Sat 08:18:23 35.3508 -77.7083 218° Southwest 358 663 36,000  Level Washington Center
Sat 08:19:23 35.2742 -77.7878 220° Southwest 358 663 36,000  Level Washington Center
Sat 08:20:23 35.1978 -77.8619 218° Southwest 358 663 36,000  Level Washington Center
Sat 08:21:23 35.1211 -77.9333 217° Southwest 358 663 36,000  Level Washington Center
Sat 08:22:23 35.0447 -78.0097 219° Southwest 358 663 36,000  Level Washington Center
Sat 08:23:23 34.9681 -78.0836 218° Southwest 358 663 36,000  Level Washington Center
Sat 08:24:23 34.8892 -78.1594 218° Southwest 358 663 36,000 350 Level Washington Center
Sat 08:25:23 34.8081 -78.2481 222° Southwest 358 663 36,700 800 Climbing Washington Center
Sat 08:26:23 34.7311 -78.3214 218° Southwest 363 673 37,600 398 Climbing Washington Center
Sat 08:28:39 34.5603 -78.4756 217° Southwest 355 658 38,000 122 Climbing Jacksonville Center
Sat 08:29:39 34.4878 -78.5550 222° Southwest 355 658 38,000  Level Jacksonville Center
Sat 08:30:39 34.4111 -78.6267 218° Southwest 355 658 38,000  Level Jacksonville Center
Sat 08:31:39 34.3344 -78.7033 220° Southwest 360 666 38,000  Level Jacksonville Center
Sat 08:32:39 34.2553 -78.7750 217° Southwest 360 666 38,000  Level Jacksonville Center
Sat 08:33:39 34.1783 -78.8464 218° Southwest 360 666 38,000  Level Jacksonville Center
Sat 08:34:39 34.0994 -78.9228 219° Southwest 360 666 38,000  Level Jacksonville Center
Sat 08:35:39 34.0203 -78.9967 218° Southwest 360 666 38,000  Level Jacksonville Center
Sat 08:36:39 33.9433 -79.0675 217° Southwest 360 666 38,000  Level Jacksonville Center
Sat 08:37:39 33.8661 -79.1408 218° Southwest 360 666 38,000  Level Jacksonville Center
Sat 08:38:39 33.7850 -79.2144 217° Southwest 360 666 38,000  Level Jacksonville Center
Sat 08:39:39 33.7017 -79.2953 219° Southwest 360 666 38,000  Level Jacksonville Center
Sat 08:40:39 33.6344 -79.3553 217° Southwest 360 666 38,000  Level Jacksonville Center
Sat 08:41:39 33.5553 -79.4308 219° Southwest 360 666 38,000  Level Jacksonville Center
Sat 08:42:39 33.4758 -79.5011 216° Southwest 360 666 38,000  Level Jacksonville Center
Sat 08:43:39 33.3983 -79.5736 218° Southwest 360 666 38,000  Level Jacksonville Center
Sat 08:44:39 33.3208 -79.6461 218° Southwest 360 666 38,000  Level Jacksonville Center
Sat 08:45:39 33.2414 -79.7186 217° Southwest 360 666 38,000  Level Jacksonville Center
Sat 08:46:39 33.1617 -79.7908 217° Southwest 360 666 38,000  Level Jacksonville Center
Sat 08:47:39 33.0842 -79.8631 218° Southwest 360 666 38,000  Level Jacksonville Center
Sat 08:48:39 33.0025 -79.9328 216° Southwest 365 676 38,000  Level Jacksonville Center
Sat 08:49:39 32.9228 -80.0094 219° Southwest 365 676 38,000  Level Jacksonville Center
Sat 08:50:39 32.8386 -80.0767 214° Southwest 365 676 38,000  Level Jacksonville Center
Sat 08:51:39 32.7442 -80.1461 212° Southwest 370 686 38,000  Level Jacksonville Center
Sat 08:52:39 32.6581 -80.2106 212° Southwest 370 686 38,000  Level Jacksonville Center
Sat 08:53:39 32.5717 -80.2747 212° Southwest 370 686 38,000  Level Jacksonville Center
Sat 08:54:39 32.4853 -80.3386 212° Southwest 370 686 38,000  Level Jacksonville Center
Sat 08:55:39 32.3967 -80.4028 211° Southwest 370 686 38,000  Level Jacksonville Center
Sat 08:56:39 32.3125 -80.4689 214° Southwest 370 686 38,000  Level Jacksonville Center
Sat 08:57:39 32.2258 -80.5300 211° Southwest 370 686 38,000  Level Jacksonville Center
Sat 08:58:39 32.1414 -80.5936 213° Southwest 377 698 38,000  Level Jacksonville Center
Sat 08:59:39 32.0528 -80.6572 211° Southwest 371 687 38,000  Level Jacksonville Center
Sat 09:00:39 31.9725 -80.7131 211° Southwest 383 710 38,000  Level Jacksonville Center
Sat 09:01:39 31.8756 -80.7836 212° Southwest 378 700 38,000  Level Jacksonville Center
Sat 09:02:39 31.7867 -80.8469 211° Southwest 383 710 38,000  Level Jacksonville Center
Sat 09:03:39 31.7083 -80.9047 212° Southwest 383 710 38,000  Level Jacksonville Center
Sat 09:04:40 31.6092 -80.9703 209° Southwest 383 710 38,000  Level Jacksonville Center
Sat 09:05:39 31.5156 -80.9917 191° South 374 692 38,000  Level Jacksonville Center
Sat 09:06:39 31.4011 -81.0136 189° South 387 716 38,000  Level Jacksonville Center
Sat 09:07:39 31.2928 -81.0328 189° South 395 732 38,000  Level Jacksonville Center
Sat 09:08:39 31.1844 -81.0567 191° South 390 723 38,000  Level Jacksonville Center
Sat 09:09:39 31.0803 -81.0733 188° South 386 715 38,000  Level Jacksonville Center
Sat 09:10:39 30.9742 -81.0922 189° South 386 715 38,000  Level Jacksonville Center
Sat 09:11:39 30.8700 -81.1136 190° South 386 715 38,000 -750 Level Jacksonville Center
Sat 09:12:39 30.7597 -81.1328 188° South 391 724 36,500 -1,900 Descending Jacksonville Center
Sat 09:13:39 30.6556 -81.1492 188° South 391 724 34,200 -1,650 Descending Jacksonville Center
Sat 09:14:39 30.5489 -81.1511 181° South 391 724 33,200 -2,250 Descending Jacksonville Center
Sat 09:15:39 30.4403 -81.1458 178° South 386 715 29,700 -2,350 Descending Jacksonville Center
Sat 09:16:39 30.3172 -81.1456 180° South 408 756 28,500 -1,100 Descending Jacksonville Center
Sat 09:17:39 30.1939 -81.1406 178° South 431 798 27,500 -1,000 Descending Jacksonville Center
Sat 09:18:39 30.0728 -81.1381 179° South 442 819 26,500 -992 Descending Jacksonville Center
Sat 09:19:40 29.9494 -81.1331 178° South 442 819 25,500 -1,000 Descending Jacksonville Center
Sat 09:20:39 29.8286 -81.1328 180° South 442 819 24,500 -756 Descending Jacksonville Center
Sat 09:21:39 29.7239 -81.1275 177° South 442 819 24,000 -550 Descending Jacksonville Center
Sat 09:22:39 29.6050 -81.1250 179° South 431 798 23,400 -1,650 Descending Jacksonville Center
Sat 09:23:39 29.4881 -81.1222 179° South 425 787 20,700 -2,800 Descending Jacksonville Center
Sat 09:24:39 29.3647 -81.1150 177° South 412 763 17,800 -2,550 Descending Jacksonville Center
Sat 09:25:39 29.2542 -81.1122 179° South 400 740 15,600 -2,200 Descending Jacksonville Center
Sat 09:26:39 29.1517 -81.1044 176° South 375 695 13,400 -1,750 Descending Jacksonville Center
Sat 09:27:39 29.0556 -81.0944 175° South 352 652 12,100 -700 Descending Jacksonville Center
Sat 09:28:39 28.9594 -81.0867 176° South 345 639 12,000 -900 Descending Jacksonville Center
Sat 09:29:39 28.8781 -81.0931 184° South 345 639 10,300 -1,592 Descending Jacksonville Center
Sat 09:30:17 28.8167 -81.0833 172° South 272 504 9,400 -1,531 Descending Orlando TRACON
Sat 09:31:17 28.7500 -81.1000 192° South 269 499 7,800 -1,636 Descending Orlando TRACON
Sat 09:32:18 28.7167 -81.1667 240° Southwest 238 441 6,100 -2,087 Descending Orlando TRACON
Sat 09:33:12 28.6833 -81.2167 233° Southwest 267 494 3,800 -1,500 Descending Orlando TRACON
Sat 09:34:18 28.6333 -81.2833 229° Southwest 230 426 3,100 -619 Descending Orlando TRACON
Sat 09:35:18 28.5833 -81.3000 196° South 187 346 2,500 -650 Descending Orlando TRACON
Sat 09:36:18 28.5167 -81.3000 180° South 187 346 1,800 -750 Descending Orlando TRACON
Sat 09:37:18 28.4833 -81.3000 180° South 165 306 1,000 -800 Descending Orlando TRACON
Sat 09:39:00 28.4294 -81.3090 186° South  Level Estimated
Sat 09:46:00 28.4294 -81.3090 186° South  Level Estimated
Sat 09:47:00 28.4294 -81.3090 186° South  Level Estimated
Sat 09:48:00 28.4294 -81.3090 186° South  Level Estimated
Sat 09:49:00 28.4294 -81.3090 186° South  Level Estimated

Login

Don't have an account? Register now (free) for customized features, flight alerts, and more!